sensor_id;sensor_type;location;lat;lon;timestamp;P1;durP1;ratioP1;P2;durP2;ratioP2
55222;SDS011;41090;48.632;12.428;2022-12-20T00:01:51;59.17;;;39.10;;
55222;SDS011;41090;48.632;12.428;2022-12-20T00:04:16;53.70;;;39.27;;
55222;SDS011;41090;48.632;12.428;2022-12-20T00:06:42;55.17;;;38.60;;
55222;SDS011;41090;48.632;12.428;2022-12-20T00:09:07;57.33;;;38.63;;
55222;SDS011;41090;48.632;12.428;2022-12-20T00:11:33;56.67;;;37.97;;
55222;SDS011;41090;48.632;12.428;2022-12-20T00:13:58;55.60;;;38.27;;
55222;SDS011;41090;48.632;12.428;2022-12-20T00:16:27;56.23;;;36.00;;
55222;SDS011;41090;48.632;12.428;2022-12-20T00:18:54;52.97;;;36.33;;
55222;SDS011;41090;48.632;12.428;2022-12-20T00:21:20;56.07;;;37.37;;
55222;SDS011;41090;48.632;12.428;2022-12-20T00:23:51;55.90;;;37.10;;
55222;SDS011;41090;48.632;12.428;2022-12-20T00:26:17;57.00;;;38.07;;
55222;SDS011;41090;48.632;12.428;2022-12-20T00:28:47;54.33;;;35.73;;
55222;SDS011;41090;48.632;12.428;2022-12-20T00:31:20;56.97;;;36.13;;
55222;SDS011;41090;48.632;12.428;2022-12-20T00:33:47;59.97;;;39.40;;
55222;SDS011;41090;48.632;12.428;2022-12-20T00:36:23;61.73;;;40.83;;
55222;SDS011;41090;48.632;12.428;2022-12-20T00:38:49;55.03;;;36.97;;
55222;SDS011;41090;48.632;12.428;2022-12-20T00:41:16;59.03;;;38.20;;
55222;SDS011;41090;48.632;12.428;2022-12-20T00:43:41;53.83;;;37.23;;
55222;SDS011;41090;48.632;12.428;2022-12-20T00:46:07;55.73;;;35.33;;
55222;SDS011;41090;48.632;12.428;2022-12-20T00:51:11;52.57;;;35.43;;
55222;SDS011;41090;48.632;12.428;2022-12-20T00:53:43;51.70;;;35.83;;
55222;SDS011;41090;48.632;12.428;2022-12-20T00:56:08;49.30;;;34.73;;
55222;SDS011;41090;48.632;12.428;2022-12-20T00:58:35;48.53;;;33.70;;
55222;SDS011;41090;48.632;12.428;2022-12-20T01:01:00;53.23;;;34.83;;
55222;SDS011;41090;48.632;12.428;2022-12-20T01:03:34;50.33;;;34.17;;
55222;SDS011;41090;48.632;12.428;2022-12-20T01:06:00;54.40;;;36.43;;
55222;SDS011;41090;48.632;12.428;2022-12-20T01:08:25;52.17;;;34.53;;
55222;SDS011;41090;48.632;12.428;2022-12-20T01:10:58;55.67;;;37.67;;
55222;SDS011;41090;48.632;12.428;2022-12-20T01:13:24;51.77;;;34.20;;
55222;SDS011;41090;48.632;12.428;2022-12-20T01:15:49;52.03;;;34.57;;
55222;SDS011;41090;48.632;12.428;2022-12-20T01:18:14;53.77;;;35.67;;
55222;SDS011;41090;48.632;12.428;2022-12-20T01:20:40;55.80;;;35.07;;
55222;SDS011;41090;48.632;12.428;2022-12-20T01:23:05;50.17;;;34.70;;
55222;SDS011;41090;48.632;12.428;2022-12-20T01:25:30;51.50;;;34.00;;
55222;SDS011;41090;48.632;12.428;2022-12-20T01:27:55;52.20;;;34.50;;
55222;SDS011;41090;48.632;12.428;2022-12-20T01:30:21;49.57;;;34.10;;
55222;SDS011;41090;48.632;12.428;2022-12-20T01:32:46;53.23;;;35.03;;
55222;SDS011;41090;48.632;12.428;2022-12-20T01:35:11;53.13;;;36.10;;
55222;SDS011;41090;48.632;12.428;2022-12-20T01:37:38;49.60;;;34.10;;
55222;SDS011;41090;48.632;12.428;2022-12-20T01:40:04;52.63;;;35.83;;
55222;SDS011;41090;48.632;12.428;2022-12-20T01:42:29;51.97;;;35.97;;
55222;SDS011;41090;48.632;12.428;2022-12-20T01:45:04;53.37;;;35.57;;
55222;SDS011;41090;48.632;12.428;2022-12-20T01:47:32;54.20;;;35.37;;
55222;SDS011;41090;48.632;12.428;2022-12-20T01:49:58;50.40;;;35.07;;
55222;SDS011;41090;48.632;12.428;2022-12-20T01:52:38;54.73;;;35.63;;
55222;SDS011;41090;48.632;12.428;2022-12-20T01:55:10;50.20;;;35.00;;
55222;SDS011;41090;48.632;12.428;2022-12-20T01:57:39;52.50;;;33.80;;
55222;SDS011;41090;48.632;12.428;2022-12-20T02:00:06;56.70;;;35.90;;
55222;SDS011;41090;48.632;12.428;2022-12-20T02:02:33;52.73;;;34.50;;
55222;SDS011;41090;48.632;12.428;2022-12-20T02:04:58;55.00;;;35.37;;
55222;SDS011;41090;48.632;12.428;2022-12-20T02:07:24;57.03;;;36.27;;
55222;SDS011;41090;48.632;12.428;2022-12-20T02:09:51;53.60;;;34.87;;
55222;SDS011;41090;48.632;12.428;2022-12-20T02:12:25;57.50;;;36.07;;
55222;SDS011;41090;48.632;12.428;2022-12-20T02:30:05;52.00;;;34.27;;
55222;SDS011;41090;48.632;12.428;2022-12-20T02:35:06;51.43;;;34.43;;
55222;SDS011;41090;48.632;12.428;2022-12-20T02:37:32;55.73;;;35.50;;
55222;SDS011;41090;48.632;12.428;2022-12-20T02:39:57;55.40;;;35.10;;
55222;SDS011;41090;48.632;12.428;2022-12-20T02:42:22;51.40;;;33.73;;
55222;SDS011;41090;48.632;12.428;2022-12-20T02:44:51;55.47;;;36.10;;
55222;SDS011;41090;48.632;12.428;2022-12-20T02:50:21;52.07;;;34.77;;
55222;SDS011;41090;48.632;12.428;2022-12-20T02:55:29;51.47;;;34.63;;
55222;SDS011;41090;48.632;12.428;2022-12-20T02:57:58;54.13;;;34.87;;
55222;SDS011;41090;48.632;12.428;2022-12-20T03:00:26;54.63;;;36.03;;
55222;SDS011;41090;48.632;12.428;2022-12-20T03:02:55;52.97;;;34.27;;
55222;SDS011;41090;48.632;12.428;2022-12-20T03:05:43;53.40;;;34.30;;
55222;SDS011;41090;48.632;12.428;2022-12-20T03:08:09;54.67;;;35.27;;
55222;SDS011;41090;48.632;12.428;2022-12-20T03:10:35;54.17;;;34.30;;
55222;SDS011;41090;48.632;12.428;2022-12-20T03:13:00;55.70;;;35.77;;
55222;SDS011;41090;48.632;12.428;2022-12-20T03:15:26;51.70;;;33.80;;
55222;SDS011;41090;48.632;12.428;2022-12-20T03:17:51;52.57;;;35.33;;
55222;SDS011;41090;48.632;12.428;2022-12-20T03:20:16;57.00;;;36.33;;
55222;SDS011;41090;48.632;12.428;2022-12-20T03:22:41;52.93;;;34.77;;
55222;SDS011;41090;48.632;12.428;2022-12-20T03:25:07;56.77;;;36.80;;
55222;SDS011;41090;48.632;12.428;2022-12-20T03:30:01;59.10;;;36.93;;
55222;SDS011;41090;48.632;12.428;2022-12-20T03:32:26;54.67;;;35.47;;
55222;SDS011;41090;48.632;12.428;2022-12-20T03:34:51;52.57;;;34.80;;
55222;SDS011;41090;48.632;12.428;2022-12-20T03:37:16;54.17;;;35.70;;
55222;SDS011;41090;48.632;12.428;2022-12-20T03:39:41;54.83;;;36.07;;
55222;SDS011;41090;48.632;12.428;2022-12-20T03:42:07;56.90;;;36.03;;
55222;SDS011;41090;48.632;12.428;2022-12-20T03:44:32;55.97;;;35.53;;
55222;SDS011;41090;48.632;12.428;2022-12-20T03:46:57;56.33;;;34.83;;
55222;SDS011;41090;48.632;12.428;2022-12-20T03:49:29;59.60;;;36.17;;
55222;SDS011;41090;48.632;12.428;2022-12-20T03:51:55;57.60;;;35.77;;
55222;SDS011;41090;48.632;12.428;2022-12-20T03:54:32;61.00;;;37.33;;
55222;SDS011;41090;48.632;12.428;2022-12-20T03:56:57;54.27;;;34.23;;
55222;SDS011;41090;48.632;12.428;2022-12-20T03:59:23;52.20;;;33.33;;
55222;SDS011;41090;48.632;12.428;2022-12-20T04:01:48;55.43;;;34.17;;
55222;SDS011;41090;48.632;12.428;2022-12-20T04:04:14;53.13;;;33.90;;
55222;SDS011;41090;48.632;12.428;2022-12-20T04:06:40;52.97;;;33.47;;
55222;SDS011;41090;48.632;12.428;2022-12-20T04:09:05;54.37;;;35.07;;
55222;SDS011;41090;48.632;12.428;2022-12-20T04:14:01;57.00;;;35.00;;
55222;SDS011;41090;48.632;12.428;2022-12-20T04:16:27;53.50;;;34.40;;
55222;SDS011;41090;48.632;12.428;2022-12-20T04:18:52;60.23;;;35.67;;
55222;SDS011;41090;48.632;12.428;2022-12-20T04:21:28;53.97;;;34.40;;
55222;SDS011;41090;48.632;12.428;2022-12-20T04:23:53;57.23;;;34.00;;
55222;SDS011;41090;48.632;12.428;2022-12-20T04:26:29;55.47;;;34.63;;
55222;SDS011;41090;48.632;12.428;2022-12-20T04:28:54;56.97;;;35.80;;
55222;SDS011;41090;48.632;12.428;2022-12-20T04:31:19;58.50;;;35.20;;
55222;SDS011;41090;48.632;12.428;2022-12-20T04:33:54;58.90;;;35.43;;
55222;SDS011;41090;48.632;12.428;2022-12-20T04:36:21;54.90;;;35.77;;
55222;SDS011;41090;48.632;12.428;2022-12-20T04:38:47;56.47;;;35.53;;
55222;SDS011;41090;48.632;12.428;2022-12-20T04:41:12;61.07;;;37.17;;
55222;SDS011;41090;48.632;12.428;2022-12-20T04:43:49;53.53;;;35.53;;
55222;SDS011;41090;48.632;12.428;2022-12-20T04:46:15;55.93;;;34.97;;
55222;SDS011;41090;48.632;12.428;2022-12-20T04:48:40;54.30;;;34.07;;
55222;SDS011;41090;48.632;12.428;2022-12-20T04:51:05;54.53;;;33.73;;
55222;SDS011;41090;48.632;12.428;2022-12-20T04:53:31;52.07;;;33.50;;
55222;SDS011;41090;48.632;12.428;2022-12-20T04:56:12;52.10;;;34.57;;
55222;SDS011;41090;48.632;12.428;2022-12-20T04:58:37;50.87;;;34.30;;
55222;SDS011;41090;48.632;12.428;2022-12-20T05:01:03;52.20;;;33.73;;
55222;SDS011;41090;48.632;12.428;2022-12-20T05:03:28;51.93;;;34.20;;
55222;SDS011;41090;48.632;12.428;2022-12-20T05:05:53;54.03;;;34.87;;
55222;SDS011;41090;48.632;12.428;2022-12-20T05:08:18;53.00;;;34.23;;
55222;SDS011;41090;48.632;12.428;2022-12-20T05:10:44;52.63;;;34.10;;
55222;SDS011;41090;48.632;12.428;2022-12-20T05:13:11;53.30;;;34.13;;
55222;SDS011;41090;48.632;12.428;2022-12-20T05:15:37;53.93;;;33.43;;
55222;SDS011;41090;48.632;12.428;2022-12-20T05:18:02;53.03;;;33.47;;
55222;SDS011;41090;48.632;12.428;2022-12-20T05:20:28;52.70;;;34.30;;
55222;SDS011;41090;48.632;12.428;2022-12-20T05:22:54;53.40;;;34.00;;
55222;SDS011;41090;48.632;12.428;2022-12-20T05:25:47;54.57;;;34.90;;
55222;SDS011;41090;48.632;12.428;2022-12-20T05:31:05;57.80;;;35.00;;
55222;SDS011;41090;48.632;12.428;2022-12-20T05:33:30;54.60;;;34.57;;
55222;SDS011;41090;48.632;12.428;2022-12-20T05:38:33;60.37;;;36.40;;
55222;SDS011;41090;48.632;12.428;2022-12-20T05:40:59;57.50;;;35.77;;
55222;SDS011;41090;48.632;12.428;2022-12-20T05:43:25;55.03;;;34.83;;
55222;SDS011;41090;48.632;12.428;2022-12-20T05:45:50;55.37;;;35.57;;
55222;SDS011;41090;48.632;12.428;2022-12-20T05:48:17;55.73;;;36.33;;
55222;SDS011;41090;48.632;12.428;2022-12-20T05:50:43;58.77;;;36.10;;
55222;SDS011;41090;48.632;12.428;2022-12-20T05:53:12;55.63;;;35.07;;
55222;SDS011;41090;48.632;12.428;2022-12-20T05:55:37;60.77;;;36.97;;
55222;SDS011;41090;48.632;12.428;2022-12-20T05:58:06;60.40;;;35.80;;
55222;SDS011;41090;48.632;12.428;2022-12-20T06:00:32;59.67;;;35.83;;
55222;SDS011;41090;48.632;12.428;2022-12-20T06:02:57;55.80;;;36.50;;
55222;SDS011;41090;48.632;12.428;2022-12-20T06:05:22;60.97;;;37.33;;
55222;SDS011;41090;48.632;12.428;2022-12-20T06:07:48;63.77;;;39.43;;
55222;SDS011;41090;48.632;12.428;2022-12-20T06:10:19;64.83;;;39.40;;
55222;SDS011;41090;48.632;12.428;2022-12-20T06:12:44;61.97;;;38.17;;
55222;SDS011;41090;48.632;12.428;2022-12-20T06:15:09;60.30;;;35.03;;
55222;SDS011;41090;48.632;12.428;2022-12-20T06:17:44;60.03;;;37.27;;
55222;SDS011;41090;48.632;12.428;2022-12-20T06:20:09;60.53;;;38.00;;
55222;SDS011;41090;48.632;12.428;2022-12-20T06:22:40;59.07;;;35.93;;
55222;SDS011;41090;48.632;12.428;2022-12-20T06:25:16;60.53;;;36.60;;
55222;SDS011;41090;48.632;12.428;2022-12-20T06:27:42;57.80;;;36.03;;
55222;SDS011;41090;48.632;12.428;2022-12-20T06:30:07;61.90;;;35.23;;
55222;SDS011;41090;48.632;12.428;2022-12-20T06:32:37;60.30;;;36.20;;
55222;SDS011;41090;48.632;12.428;2022-12-20T06:35:05;59.20;;;37.00;;
55222;SDS011;41090;48.632;12.428;2022-12-20T06:37:31;67.67;;;40.83;;
55222;SDS011;41090;48.632;12.428;2022-12-20T06:39:56;74.03;;;45.53;;
55222;SDS011;41090;48.632;12.428;2022-12-20T06:42:25;73.50;;;44.87;;
55222;SDS011;41090;48.632;12.428;2022-12-20T06:44:50;68.30;;;43.33;;
55222;SDS011;41090;48.632;12.428;2022-12-20T06:47:16;64.77;;;42.30;;
55222;SDS011;41090;48.632;12.428;2022-12-20T06:49:42;63.30;;;39.60;;
55222;SDS011;41090;48.632;12.428;2022-12-20T06:52:07;60.43;;;37.93;;
55222;SDS011;41090;48.632;12.428;2022-12-20T06:54:32;61.83;;;36.73;;
55222;SDS011;41090;48.632;12.428;2022-12-20T06:56:57;59.50;;;37.23;;
55222;SDS011;41090;48.632;12.428;2022-12-20T06:59:23;63.17;;;37.13;;
55222;SDS011;41090;48.632;12.428;2022-12-20T07:01:49;60.53;;;35.33;;
55222;SDS011;41090;48.632;12.428;2022-12-20T07:04:14;60.70;;;36.07;;
55222;SDS011;41090;48.632;12.428;2022-12-20T07:06:40;63.00;;;36.97;;
55222;SDS011;41090;48.632;12.428;2022-12-20T07:09:07;57.23;;;34.43;;
55222;SDS011;41090;48.632;12.428;2022-12-20T07:11:43;52.57;;;32.07;;
55222;SDS011;41090;48.632;12.428;2022-12-20T07:14:10;57.17;;;34.80;;
55222;SDS011;41090;48.632;12.428;2022-12-20T07:16:37;58.70;;;36.07;;
55222;SDS011;41090;48.632;12.428;2022-12-20T07:19:02;55.17;;;34.07;;
55222;SDS011;41090;48.632;12.428;2022-12-20T07:21:27;63.77;;;37.90;;
55222;SDS011;41090;48.632;12.428;2022-12-20T07:23:53;58.07;;;35.13;;
55222;SDS011;41090;48.632;12.428;2022-12-20T07:26:19;54.53;;;33.60;;
55222;SDS011;41090;48.632;12.428;2022-12-20T07:28:46;62.20;;;36.70;;
55222;SDS011;41090;48.632;12.428;2022-12-20T07:31:11;70.47;;;40.57;;
55222;SDS011;41090;48.632;12.428;2022-12-20T07:33:37;63.73;;;37.97;;
55222;SDS011;41090;48.632;12.428;2022-12-20T07:36:08;62.13;;;35.97;;
55222;SDS011;41090;48.632;12.428;2022-12-20T07:38:35;57.63;;;35.20;;
55222;SDS011;41090;48.632;12.428;2022-12-20T07:41:13;61.37;;;36.97;;
55222;SDS011;41090;48.632;12.428;2022-12-20T07:43:38;74.13;;;43.47;;
55222;SDS011;41090;48.632;12.428;2022-12-20T07:46:06;71.03;;;44.57;;
55222;SDS011;41090;48.632;12.428;2022-12-20T07:48:32;59.53;;;37.43;;
55222;SDS011;41090;48.632;12.428;2022-12-20T07:51:00;58.43;;;35.93;;
55222;SDS011;41090;48.632;12.428;2022-12-20T07:53:26;58.57;;;34.83;;
55222;SDS011;41090;48.632;12.428;2022-12-20T07:55:52;56.77;;;35.47;;
55222;SDS011;41090;48.632;12.428;2022-12-20T07:58:18;59.73;;;36.63;;
55222;SDS011;41090;48.632;12.428;2022-12-20T08:00:51;58.33;;;36.30;;
55222;SDS011;41090;48.632;12.428;2022-12-20T08:03:18;59.60;;;35.93;;
55222;SDS011;41090;48.632;12.428;2022-12-20T08:05:49;57.83;;;34.93;;
55222;SDS011;41090;48.632;12.428;2022-12-20T08:08:21;58.93;;;36.50;;
55222;SDS011;41090;48.632;12.428;2022-12-20T08:10:47;59.20;;;36.13;;
55222;SDS011;41090;48.632;12.428;2022-12-20T08:16:19;58.70;;;36.00;;
55222;SDS011;41090;48.632;12.428;2022-12-20T08:18:44;57.70;;;34.70;;
55222;SDS011;41090;48.632;12.428;2022-12-20T08:21:10;60.77;;;37.20;;
55222;SDS011;41090;48.632;12.428;2022-12-20T08:23:37;59.87;;;37.40;;
55222;SDS011;41090;48.632;12.428;2022-12-20T08:26:03;59.03;;;38.13;;
55222;SDS011;41090;48.632;12.428;2022-12-20T08:28:33;56.53;;;36.80;;
55222;SDS011;41090;48.632;12.428;2022-12-20T08:31:01;61.80;;;37.43;;
55222;SDS011;41090;48.632;12.428;2022-12-20T08:33:27;61.30;;;36.67;;
55222;SDS011;41090;48.632;12.428;2022-12-20T08:36:08;65.27;;;40.90;;
55222;SDS011;41090;48.632;12.428;2022-12-20T08:38:33;63.03;;;39.63;;
55222;SDS011;41090;48.632;12.428;2022-12-20T08:41:06;62.67;;;40.87;;
55222;SDS011;41090;48.632;12.428;2022-12-20T08:43:32;57.40;;;35.57;;
55222;SDS011;41090;48.632;12.428;2022-12-20T08:45:58;59.20;;;35.67;;
55222;SDS011;41090;48.632;12.428;2022-12-20T08:48:23;54.27;;;35.70;;
55222;SDS011;41090;48.632;12.428;2022-12-20T08:50:56;52.93;;;34.03;;
55222;SDS011;41090;48.632;12.428;2022-12-20T08:53:24;52.47;;;33.63;;
55222;SDS011;41090;48.632;12.428;2022-12-20T08:55:49;56.70;;;34.67;;
55222;SDS011;41090;48.632;12.428;2022-12-20T08:58:15;58.40;;;37.83;;
55222;SDS011;41090;48.632;12.428;2022-12-20T09:00:40;57.77;;;35.37;;
55222;SDS011;41090;48.632;12.428;2022-12-20T09:03:06;57.07;;;34.50;;
55222;SDS011;41090;48.632;12.428;2022-12-20T09:08:07;53.83;;;33.63;;
55222;SDS011;41090;48.632;12.428;2022-12-20T09:10:37;53.07;;;32.80;;
55222;SDS011;41090;48.632;12.428;2022-12-20T09:13:03;55.67;;;34.63;;
55222;SDS011;41090;48.632;12.428;2022-12-20T09:15:28;55.97;;;34.17;;
55222;SDS011;41090;48.632;12.428;2022-12-20T09:17:54;53.90;;;33.53;;
55222;SDS011;41090;48.632;12.428;2022-12-20T09:20:19;58.70;;;36.50;;
55222;SDS011;41090;48.632;12.428;2022-12-20T09:22:56;49.97;;;33.33;;
55222;SDS011;41090;48.632;12.428;2022-12-20T09:25:22;56.07;;;34.30;;
55222;SDS011;41090;48.632;12.428;2022-12-20T09:27:48;53.70;;;34.00;;
55222;SDS011;41090;48.632;12.428;2022-12-20T09:30:14;54.93;;;34.13;;
55222;SDS011;41090;48.632;12.428;2022-12-20T09:32:39;56.20;;;35.17;;
55222;SDS011;41090;48.632;12.428;2022-12-20T09:35:04;56.03;;;35.77;;
55222;SDS011;41090;48.632;12.428;2022-12-20T09:37:30;57.03;;;35.50;;
55222;SDS011;41090;48.632;12.428;2022-12-20T09:39:56;52.90;;;33.57;;
55222;SDS011;41090;48.632;12.428;2022-12-20T09:42:25;52.40;;;33.90;;
55222;SDS011;41090;48.632;12.428;2022-12-20T09:45:04;57.57;;;34.20;;
55222;SDS011;41090;48.632;12.428;2022-12-20T09:47:30;53.10;;;34.50;;
55222;SDS011;41090;48.632;12.428;2022-12-20T09:49:57;55.63;;;33.57;;
55222;SDS011;41090;48.632;12.428;2022-12-20T09:59:59;58.60;;;36.67;;
55222;SDS011;41090;48.632;12.428;2022-12-20T10:02:24;57.30;;;36.97;;
55222;SDS011;41090;48.632;12.428;2022-12-20T10:04:51;68.40;;;41.30;;
55222;SDS011;41090;48.632;12.428;2022-12-20T10:07:35;83.87;;;50.93;;
55222;SDS011;41090;48.632;12.428;2022-12-20T10:10:20;61.67;;;40.13;;
55222;SDS011;41090;48.632;12.428;2022-12-20T10:13:00;59.17;;;37.33;;
55222;SDS011;41090;48.632;12.428;2022-12-20T10:15:45;50.33;;;34.50;;
55222;SDS011;41090;48.632;12.428;2022-12-20T10:21:18;53.63;;;37.63;;
55222;SDS011;41090;48.632;12.428;2022-12-20T10:23:52;49.63;;;33.90;;
55222;SDS011;41090;48.632;12.428;2022-12-20T10:26:22;92.93;;;57.23;;
55222;SDS011;41090;48.632;12.428;2022-12-20T10:28:47;77.50;;;51.97;;
55222;SDS011;41090;48.632;12.428;2022-12-20T10:33:43;51.80;;;36.50;;
55222;SDS011;41090;48.632;12.428;2022-12-20T10:38:44;48.27;;;32.53;;
55222;SDS011;41090;48.632;12.428;2022-12-20T10:41:13;48.00;;;32.73;;
55222;SDS011;41090;48.632;12.428;2022-12-20T10:43:41;44.67;;;31.33;;
55222;SDS011;41090;48.632;12.428;2022-12-20T10:46:07;44.57;;;31.47;;
55222;SDS011;41090;48.632;12.428;2022-12-20T10:48:37;47.33;;;34.57;;
55222;SDS011;41090;48.632;12.428;2022-12-20T10:53:29;47.17;;;34.17;;
55222;SDS011;41090;48.632;12.428;2022-12-20T10:56:19;47.87;;;33.90;;
55222;SDS011;41090;48.632;12.428;2022-12-20T10:59:32;47.43;;;34.67;;
55222;SDS011;41090;48.632;12.428;2022-12-20T11:01:34;47.90;;;34.03;;
55222;SDS011;41090;48.632;12.428;2022-12-20T11:04:01;46.43;;;33.50;;
55222;SDS011;41090;48.632;12.428;2022-12-20T11:06:29;50.00;;;34.97;;
55222;SDS011;41090;48.632;12.428;2022-12-20T11:11:56;43.73;;;32.30;;
55222;SDS011;41090;48.632;12.428;2022-12-20T11:14:21;44.83;;;32.57;;
55222;SDS011;41090;48.632;12.428;2022-12-20T11:16:48;45.17;;;32.80;;
55222;SDS011;41090;48.632;12.428;2022-12-20T11:21:49;43.53;;;32.50;;
55222;SDS011;41090;48.632;12.428;2022-12-20T11:35:04;42.57;;;31.80;;
55222;SDS011;41090;48.632;12.428;2022-12-20T11:37:40;44.67;;;32.17;;
55222;SDS011;41090;48.632;12.428;2022-12-20T11:52:50;46.03;;;32.57;;
55222;SDS011;41090;48.632;12.428;2022-12-20T11:57:54;45.03;;;33.27;;
55222;SDS011;41090;48.632;12.428;2022-12-20T12:00:21;46.07;;;32.93;;
55222;SDS011;41090;48.632;12.428;2022-12-20T12:07:55;50.97;;;34.30;;
55222;SDS011;41090;48.632;12.428;2022-12-20T12:10:22;44.77;;;32.50;;
55222;SDS011;41090;48.632;12.428;2022-12-20T12:12:53;47.03;;;32.87;;
55222;SDS011;41090;48.632;12.428;2022-12-20T12:15:25;45.47;;;33.73;;
55222;SDS011;41090;48.632;12.428;2022-12-20T12:18:00;43.23;;;31.07;;
55222;SDS011;41090;48.632;12.428;2022-12-20T12:20:46;43.13;;;31.40;;
55222;SDS011;41090;48.632;12.428;2022-12-20T12:25:40;45.93;;;33.37;;
55222;SDS011;41090;48.632;12.428;2022-12-20T12:28:06;42.27;;;30.57;;
55222;SDS011;41090;48.632;12.428;2022-12-20T12:30:46;43.67;;;31.67;;
55222;SDS011;41090;48.632;12.428;2022-12-20T12:46:07;41.47;;;28.43;;
55222;SDS011;41090;48.632;12.428;2022-12-20T12:51:30;43.13;;;29.97;;
55222;SDS011;41090;48.632;12.428;2022-12-20T12:56:48;44.10;;;29.73;;
55222;SDS011;41090;48.632;12.428;2022-12-20T12:59:18;43.87;;;30.10;;
55222;SDS011;41090;48.632;12.428;2022-12-20T13:01:54;42.33;;;29.57;;
55222;SDS011;41090;48.632;12.428;2022-12-20T13:04:26;42.20;;;28.33;;
55222;SDS011;41090;48.632;12.428;2022-12-20T13:07:02;45.83;;;29.53;;
55222;SDS011;41090;48.632;12.428;2022-12-20T13:11:55;44.63;;;28.90;;
55222;SDS011;41090;48.632;12.428;2022-12-20T13:21:56;43.73;;;29.23;;
55222;SDS011;41090;48.632;12.428;2022-12-20T13:27:25;42.73;;;29.10;;
55222;SDS011;41090;48.632;12.428;2022-12-20T13:45:42;38.90;;;25.73;;
55222;SDS011;41090;48.632;12.428;2022-12-20T13:48:09;46.13;;;27.77;;
55222;SDS011;41090;48.632;12.428;2022-12-20T13:50:40;41.27;;;27.73;;
55222;SDS011;41090;48.632;12.428;2022-12-20T13:53:25;41.17;;;25.93;;
55222;SDS011;41090;48.632;12.428;2022-12-20T13:55:51;42.67;;;27.37;;
55222;SDS011;41090;48.632;12.428;2022-12-20T13:58:35;44.00;;;29.37;;
55222;SDS011;41090;48.632;12.428;2022-12-20T14:01:10;43.20;;;28.27;;
55222;SDS011;41090;48.632;12.428;2022-12-20T14:03:39;44.70;;;27.53;;
55222;SDS011;41090;48.632;12.428;2022-12-20T14:06:08;43.30;;;27.10;;
55222;SDS011;41090;48.632;12.428;2022-12-20T14:08:38;42.97;;;28.47;;
55222;SDS011;41090;48.632;12.428;2022-12-20T14:11:06;45.80;;;29.93;;
55222;SDS011;41090;48.632;12.428;2022-12-20T14:13:31;41.47;;;27.07;;
55222;SDS011;41090;48.632;12.428;2022-12-20T14:15:57;43.50;;;27.80;;
55222;SDS011;41090;48.632;12.428;2022-12-20T14:18:30;43.50;;;28.03;;
55222;SDS011;41090;48.632;12.428;2022-12-20T14:21:00;44.30;;;29.87;;
55222;SDS011;41090;48.632;12.428;2022-12-20T14:23:29;48.47;;;30.90;;
55222;SDS011;41090;48.632;12.428;2022-12-20T14:25:57;46.80;;;29.60;;
55222;SDS011;41090;48.632;12.428;2022-12-20T14:31:02;45.47;;;28.60;;
55222;SDS011;41090;48.632;12.428;2022-12-20T14:33:29;42.53;;;28.13;;
55222;SDS011;41090;48.632;12.428;2022-12-20T14:35:56;44.00;;;27.87;;
55222;SDS011;41090;48.632;12.428;2022-12-20T14:38:28;44.33;;;28.50;;
55222;SDS011;41090;48.632;12.428;2022-12-20T14:40:54;47.60;;;28.30;;
55222;SDS011;41090;48.632;12.428;2022-12-20T14:43:53;45.60;;;29.60;;
55222;SDS011;41090;48.632;12.428;2022-12-20T14:46:16;48.10;;;29.23;;
55222;SDS011;41090;48.632;12.428;2022-12-20T14:48:41;50.87;;;31.63;;
55222;SDS011;41090;48.632;12.428;2022-12-20T14:51:07;49.33;;;30.50;;
55222;SDS011;41090;48.632;12.428;2022-12-20T14:53:32;49.87;;;31.47;;
55222;SDS011;41090;48.632;12.428;2022-12-20T14:56:01;60.97;;;39.07;;
55222;SDS011;41090;48.632;12.428;2022-12-20T14:58:32;58.40;;;37.70;;
55222;SDS011;41090;48.632;12.428;2022-12-20T15:03:51;49.40;;;30.27;;
55222;SDS011;41090;48.632;12.428;2022-12-20T15:06:30;49.13;;;31.20;;
55222;SDS011;41090;48.632;12.428;2022-12-20T15:08:56;50.70;;;31.20;;
55222;SDS011;41090;48.632;12.428;2022-12-20T15:11:23;48.97;;;30.97;;
55222;SDS011;41090;48.632;12.428;2022-12-20T15:13:50;53.67;;;34.70;;
55222;SDS011;41090;48.632;12.428;2022-12-20T15:18:43;120.53;;;52.13;;
55222;SDS011;41090;48.632;12.428;2022-12-20T15:21:12;67.80;;;39.80;;
55222;SDS011;41090;48.632;12.428;2022-12-20T15:23:48;48.23;;;30.73;;
55222;SDS011;41090;48.632;12.428;2022-12-20T15:26:23;53.27;;;34.57;;
55222;SDS011;41090;48.632;12.428;2022-12-20T15:28:53;52.87;;;32.20;;
55222;SDS011;41090;48.632;12.428;2022-12-20T15:31:18;50.40;;;32.47;;
55222;SDS011;41090;48.632;12.428;2022-12-20T15:33:45;51.03;;;30.80;;
55222;SDS011;41090;48.632;12.428;2022-12-20T15:38:59;55.83;;;32.87;;
55222;SDS011;41090;48.632;12.428;2022-12-20T15:41:25;52.87;;;31.53;;
55222;SDS011;41090;48.632;12.428;2022-12-20T15:44:05;55.10;;;33.10;;
55222;SDS011;41090;48.632;12.428;2022-12-20T15:46:30;55.27;;;33.57;;
55222;SDS011;41090;48.632;12.428;2022-12-20T15:48:56;60.13;;;35.07;;
55222;SDS011;41090;48.632;12.428;2022-12-20T15:51:34;56.73;;;34.07;;
55222;SDS011;41090;48.632;12.428;2022-12-20T15:54:00;56.57;;;35.13;;
55222;SDS011;41090;48.632;12.428;2022-12-20T15:56:26;56.10;;;33.17;;
55222;SDS011;41090;48.632;12.428;2022-12-20T15:58:52;58.67;;;35.60;;
55222;SDS011;41090;48.632;12.428;2022-12-20T16:01:19;56.03;;;33.47;;
55222;SDS011;41090;48.632;12.428;2022-12-20T16:03:45;86.20;;;45.83;;
55222;SDS011;41090;48.632;12.428;2022-12-20T16:06:12;118.00;;;60.23;;
55222;SDS011;41090;48.632;12.428;2022-12-20T16:08:38;57.90;;;35.33;;
55222;SDS011;41090;48.632;12.428;2022-12-20T16:11:04;54.97;;;34.80;;
55222;SDS011;41090;48.632;12.428;2022-12-20T16:13:29;55.33;;;33.10;;
55222;SDS011;41090;48.632;12.428;2022-12-20T16:15:55;55.27;;;32.50;;
55222;SDS011;41090;48.632;12.428;2022-12-20T16:18:20;55.87;;;31.87;;
55222;SDS011;41090;48.632;12.428;2022-12-20T16:20:45;61.83;;;37.37;;
55222;SDS011;41090;48.632;12.428;2022-12-20T16:23:15;56.93;;;33.57;;
55222;SDS011;41090;48.632;12.428;2022-12-20T16:25:41;54.57;;;32.70;;
55222;SDS011;41090;48.632;12.428;2022-12-20T16:28:06;55.47;;;32.17;;
55222;SDS011;41090;48.632;12.428;2022-12-20T16:30:31;56.07;;;34.87;;
55222;SDS011;41090;48.632;12.428;2022-12-20T16:32:57;55.70;;;33.53;;
55222;SDS011;41090;48.632;12.428;2022-12-20T16:35:31;56.63;;;33.23;;
55222;SDS011;41090;48.632;12.428;2022-12-20T16:37:57;57.17;;;34.43;;
55222;SDS011;41090;48.632;12.428;2022-12-20T16:40:25;58.27;;;34.17;;
55222;SDS011;41090;48.632;12.428;2022-12-20T16:42:50;58.73;;;33.67;;
55222;SDS011;41090;48.632;12.428;2022-12-20T16:45:20;61.53;;;38.50;;
55222;SDS011;41090;48.632;12.428;2022-12-20T16:47:46;105.07;;;58.03;;
55222;SDS011;41090;48.632;12.428;2022-12-20T16:50:12;114.30;;;60.90;;
55222;SDS011;41090;48.632;12.428;2022-12-20T16:52:37;83.33;;;49.03;;